sensor_id;sensor_type;location;lat;lon;timestamp;temperature;humidity
20911;DHT22;10615;42.702;23.314;2023-04-03T00:00:46;12.90;61.10
20911;DHT22;10615;42.702;23.314;2023-04-03T00:01:48;12.80;61.10
20911;DHT22;10615;42.702;23.314;2023-04-03T00:02:49;12.80;61.10
20911;DHT22;10615;42.702;23.314;2023-04-03T00:03:49;12.80;61.00
20911;DHT22;10615;42.702;23.314;2023-04-03T00:04:52;12.80;61.00
20911;DHT22;10615;42.702;23.314;2023-04-03T00:05:52;12.80;61.00
20911;DHT22;10615;42.702;23.314;2023-04-03T00:06:53;12.80;61.00
20911;DHT22;10615;42.702;23.314;2023-04-03T00:07:53;12.70;61.10
20911;DHT22;10615;42.702;23.314;2023-04-03T00:08:54;12.70;61.30
20911;DHT22;10615;42.702;23.314;2023-04-03T00:09:55;12.70;61.30
20911;DHT22;10615;42.702;23.314;2023-04-03T00:10:56;12.70;61.40
20911;DHT22;10615;42.702;23.314;2023-04-03T00:11:56;12.70;61.40
20911;DHT22;10615;42.702;23.314;2023-04-03T00:12:57;12.70;61.40
20911;DHT22;10615;42.702;23.314;2023-04-03T00:13:58;12.70;61.40
20911;DHT22;10615;42.702;23.314;2023-04-03T00:14:58;12.70;61.40
20911;DHT22;10615;42.702;23.314;2023-04-03T00:15:59;12.70;61.40
20911;DHT22;10615;42.702;23.314;2023-04-03T00:17:00;12.60;61.40
20911;DHT22;10615;42.702;23.314;2023-04-03T00:18:01;12.60;61.40
20911;DHT22;10615;42.702;23.314;2023-04-03T00:19:02;12.60;61.40
20911;DHT22;10615;42.702;23.314;2023-04-03T00:20:03;12.60;61.50
20911;DHT22;10615;42.702;23.314;2023-04-03T00:21:05;12.60;61.50
20911;DHT22;10615;42.702;23.314;2023-04-03T00:22:06;12.50;61.40
20911;DHT22;10615;42.702;23.314;2023-04-03T00:23:07;12.60;61.50
20911;DHT22;10615;42.702;23.314;2023-04-03T00:24:07;12.50;61.60
20911;DHT22;10615;42.702;23.314;2023-04-03T00:25:08;12.50;61.70
20911;DHT22;10615;42.702;23.314;2023-04-03T00:26:09;12.50;61.80
20911;DHT22;10615;42.702;23.314;2023-04-03T00:27:10;12.50;61.80
20911;DHT22;10615;42.702;23.314;2023-04-03T00:28:11;12.50;61.90
20911;DHT22;10615;42.702;23.314;2023-04-03T00:29:12;12.50;61.80
20911;DHT22;10615;42.702;23.314;2023-04-03T00:30:16;12.50;61.80
20911;DHT22;10615;42.702;23.314;2023-04-03T00:31:16;12.50;61.80
20911;DHT22;10615;42.702;23.314;2023-04-03T00:32:17;12.50;62.00
20911;DHT22;10615;42.702;23.314;2023-04-03T00:33:18;12.50;62.10
20911;DHT22;10615;42.702;23.314;2023-04-03T00:34:21;12.50;62.20
20911;DHT22;10615;42.702;23.314;2023-04-03T00:35:23;12.50;62.30
20911;DHT22;10615;42.702;23.314;2023-04-03T00:36:23;12.50;62.30
20911;DHT22;10615;42.702;23.314;2023-04-03T00:37:24;12.50;62.40
20911;DHT22;10615;42.702;23.314;2023-04-03T00:38:25;12.50;62.30
20911;DHT22;10615;42.702;23.314;2023-04-03T00:39:25;12.50;62.40
20911;DHT22;10615;42.702;23.314;2023-04-03T00:40:27;12.50;62.60
20911;DHT22;10615;42.702;23.314;2023-04-03T00:41:28;12.50;62.60
20911;DHT22;10615;42.702;23.314;2023-04-03T00:42:29;12.40;62.70
20911;DHT22;10615;42.702;23.314;2023-04-03T00:43:30;12.40;62.70
20911;DHT22;10615;42.702;23.314;2023-04-03T00:45:37;12.40;62.70
20911;DHT22;10615;42.702;23.314;2023-04-03T00:46:38;12.40;62.80
20911;DHT22;10615;42.702;23.314;2023-04-03T00:47:39;12.40;62.90
20911;DHT22;10615;42.702;23.314;2023-04-03T00:48:43;12.40;62.90
20911;DHT22;10615;42.702;23.314;2023-04-03T00:49:45;12.40;62.90
20911;DHT22;10615;42.702;23.314;2023-04-03T00:50:46;12.40;63.00
20911;DHT22;10615;42.702;23.314;2023-04-03T00:51:47;12.40;63.00
20911;DHT22;10615;42.702;23.314;2023-04-03T00:52:48;12.40;63.10
20911;DHT22;10615;42.702;23.314;2023-04-03T00:53:54;12.40;63.30
20911;DHT22;10615;42.702;23.314;2023-04-03T00:54:59;12.40;63.20
20911;DHT22;10615;42.702;23.314;2023-04-03T00:56:01;12.40;63.30
20911;DHT22;10615;42.702;23.314;2023-04-03T00:57:05;12.40;63.30
20911;DHT22;10615;42.702;23.314;2023-04-03T00:58:07;12.40;63.30
20911;DHT22;10615;42.702;23.314;2023-04-03T00:59:14;12.40;63.30
20911;DHT22;10615;42.702;23.314;2023-04-03T01:00:18;12.40;63.30
20911;DHT22;10615;42.702;23.314;2023-04-03T01:01:23;12.30;63.30
20911;DHT22;10615;42.702;23.314;2023-04-03T01:02:24;12.30;63.40
20911;DHT22;10615;42.702;23.314;2023-04-03T01:03:25;12.30;63.60
20911;DHT22;10615;42.702;23.314;2023-04-03T01:04:30;12.30;63.60
20911;DHT22;10615;42.702;23.314;2023-04-03T01:05:31;12.30;63.60
20911;DHT22;10615;42.702;23.314;2023-04-03T01:06:36;12.30;64.40
20911;DHT22;10615;42.702;23.314;2023-04-03T01:07:37;12.30;63.60
20911;DHT22;10615;42.702;23.314;2023-04-03T01:08:38;12.30;63.50
20911;DHT22;10615;42.702;23.314;2023-04-03T01:09:40;12.40;63.60
20911;DHT22;10615;42.702;23.314;2023-04-03T01:10:41;12.30;63.50
20911;DHT22;10615;42.702;23.314;2023-04-03T01:11:42;12.30;63.60
20911;DHT22;10615;42.702;23.314;2023-04-03T01:12:45;12.30;63.60
20911;DHT22;10615;42.702;23.314;2023-04-03T01:13:46;12.30;63.60
20911;DHT22;10615;42.702;23.314;2023-04-03T01:14:50;12.30;63.60
20911;DHT22;10615;42.702;23.314;2023-04-03T01:15:51;12.30;63.60
20911;DHT22;10615;42.702;23.314;2023-04-03T01:16:53;12.30;63.60
20911;DHT22;10615;42.702;23.314;2023-04-03T01:17:55;12.30;63.80
20911;DHT22;10615;42.702;23.314;2023-04-03T01:19:01;12.20;63.90
20911;DHT22;10615;42.702;23.314;2023-04-03T01:24:33;12.10;64.10
20911;DHT22;10615;42.702;23.314;2023-04-03T01:25:40;12.10;64.20
20911;DHT22;10615;42.702;23.314;2023-04-03T01:26:41;12.10;64.30
20911;DHT22;10615;42.702;23.314;2023-04-03T01:27:42;12.00;64.30
20911;DHT22;10615;42.702;23.314;2023-04-03T01:28:43;12.10;64.50
20911;DHT22;10615;42.702;23.314;2023-04-03T01:29:44;12.00;64.40
20911;DHT22;10615;42.702;23.314;2023-04-03T01:30:53;12.00;64.40
20911;DHT22;10615;42.702;23.314;2023-04-03T01:31:59;12.00;64.30
20911;DHT22;10615;42.702;23.314;2023-04-03T01:33:00;11.90;64.30
20911;DHT22;10615;42.702;23.314;2023-04-03T01:34:02;11.90;64.40
20911;DHT22;10615;42.702;23.314;2023-04-03T01:35:03;11.90;64.50
20911;DHT22;10615;42.702;23.314;2023-04-03T01:36:04;11.90;64.60
20911;DHT22;10615;42.702;23.314;2023-04-03T01:37:05;11.90;64.60
20911;DHT22;10615;42.702;23.314;2023-04-03T01:38:06;11.90;64.60
20911;DHT22;10615;42.702;23.314;2023-04-03T01:39:07;11.80;64.50
20911;DHT22;10615;42.702;23.314;2023-04-03T01:40:08;11.80;64.40
20911;DHT22;10615;42.702;23.314;2023-04-03T01:41:09;11.80;64.50
20911;DHT22;10615;42.702;23.314;2023-04-03T01:42:10;11.70;64.60
20911;DHT22;10615;42.702;23.314;2023-04-03T01:43:11;11.70;64.70
20911;DHT22;10615;42.702;23.314;2023-04-03T01:44:12;11.60;64.70
20911;DHT22;10615;42.702;23.314;2023-04-03T01:45:13;11.60;64.80
20911;DHT22;10615;42.702;23.314;2023-04-03T01:46:16;11.60;65.00
20911;DHT22;10615;42.702;23.314;2023-04-03T01:47:17;11.60;65.00
20911;DHT22;10615;42.702;23.314;2023-04-03T01:48:18;11.70;65.20
20911;DHT22;10615;42.702;23.314;2023-04-03T01:49:18;11.70;65.20
20911;DHT22;10615;42.702;23.314;2023-04-03T01:50:19;11.70;65.10
20911;DHT22;10615;42.702;23.314;2023-04-03T01:51:20;11.70;65.00
20911;DHT22;10615;42.702;23.314;2023-04-03T01:52:21;11.70;65.00
20911;DHT22;10615;42.702;23.314;2023-04-03T01:53:22;11.70;65.00
20911;DHT22;10615;42.702;23.314;2023-04-03T01:54:22;11.70;65.00
20911;DHT22;10615;42.702;23.314;2023-04-03T01:55:23;11.70;65.10
20911;DHT22;10615;42.702;23.314;2023-04-03T01:56:23;11.70;65.10
20911;DHT22;10615;42.702;23.314;2023-04-03T01:57:25;11.70;65.20
20911;DHT22;10615;42.702;23.314;2023-04-03T01:58:26;11.60;65.10
20911;DHT22;10615;42.702;23.314;2023-04-03T01:59:26;11.70;65.60
20911;DHT22;10615;42.702;23.314;2023-04-03T02:00:27;11.70;65.30
20911;DHT22;10615;42.702;23.314;2023-04-03T02:01:27;11.70;65.30
20911;DHT22;10615;42.702;23.314;2023-04-03T02:02:28;11.70;65.30
20911;DHT22;10615;42.702;23.314;2023-04-03T02:03:29;11.70;65.20
20911;DHT22;10615;42.702;23.314;2023-04-03T02:04:30;11.80;65.20
20911;DHT22;10615;42.702;23.314;2023-04-03T02:05:30;11.70;65.10
20911;DHT22;10615;42.702;23.314;2023-04-03T02:06:31;11.70;65.10
20911;DHT22;10615;42.702;23.314;2023-04-03T02:07:32;11.80;65.10
20911;DHT22;10615;42.702;23.314;2023-04-03T02:08:32;11.70;65.00
20911;DHT22;10615;42.702;23.314;2023-04-03T02:09:33;11.70;65.00
20911;DHT22;10615;42.702;23.314;2023-04-03T02:10:34;11.70;65.00
20911;DHT22;10615;42.702;23.314;2023-04-03T02:11:34;11.70;65.00
20911;DHT22;10615;42.702;23.314;2023-04-03T02:12:35;11.70;65.00
20911;DHT22;10615;42.702;23.314;2023-04-03T02:13:36;11.70;65.00
20911;DHT22;10615;42.702;23.314;2023-04-03T02:14:36;11.70;65.00
20911;DHT22;10615;42.702;23.314;2023-04-03T02:15:40;11.70;65.00
20911;DHT22;10615;42.702;23.314;2023-04-03T02:16:41;11.70;65.00
20911;DHT22;10615;42.702;23.314;2023-04-03T02:17:41;11.70;65.00
20911;DHT22;10615;42.702;23.314;2023-04-03T02:18:42;11.70;65.00
20911;DHT22;10615;42.702;23.314;2023-04-03T02:19:43;11.80;65.00
20911;DHT22;10615;42.702;23.314;2023-04-03T02:20:44;11.70;64.80
20911;DHT22;10615;42.702;23.314;2023-04-03T02:21:46;11.60;64.70
20911;DHT22;10615;42.702;23.314;2023-04-03T02:22:47;11.60;64.70
20911;DHT22;10615;42.702;23.314;2023-04-03T02:23:48;11.60;64.90
20911;DHT22;10615;42.702;23.314;2023-04-03T02:24:49;11.60;65.00
20911;DHT22;10615;42.702;23.314;2023-04-03T02:25:50;11.60;65.00
20911;DHT22;10615;42.702;23.314;2023-04-03T02:26:50;11.60;65.00
20911;DHT22;10615;42.702;23.314;2023-04-03T02:27:51;11.50;65.20
20911;DHT22;10615;42.702;23.314;2023-04-03T02:28:52;11.50;65.20
20911;DHT22;10615;42.702;23.314;2023-04-03T02:29:53;11.50;65.30
20911;DHT22;10615;42.702;23.314;2023-04-03T02:30:53;11.40;65.40
20911;DHT22;10615;42.702;23.314;2023-04-03T02:31:55;11.40;65.60
20911;DHT22;10615;42.702;23.314;2023-04-03T02:32:55;11.40;65.60
20911;DHT22;10615;42.702;23.314;2023-04-03T02:33:56;11.30;65.60
20911;DHT22;10615;42.702;23.314;2023-04-03T02:34:57;11.30;65.80
20911;DHT22;10615;42.702;23.314;2023-04-03T02:35:58;11.30;66.00
20911;DHT22;10615;42.702;23.314;2023-04-03T02:36:58;11.30;66.00
20911;DHT22;10615;42.702;23.314;2023-04-03T02:37:59;11.30;66.20
20911;DHT22;10615;42.702;23.314;2023-04-03T02:39:00;11.30;66.30
20911;DHT22;10615;42.702;23.314;2023-04-03T02:40:01;11.20;66.20
20911;DHT22;10615;42.702;23.314;2023-04-03T02:41:06;11.20;66.40
20911;DHT22;10615;42.702;23.314;2023-04-03T02:42:07;11.20;66.50
20911;DHT22;10615;42.702;23.314;2023-04-03T02:43:08;11.20;66.50
20911;DHT22;10615;42.702;23.314;2023-04-03T02:44:09;11.20;66.60
20911;DHT22;10615;42.702;23.314;2023-04-03T02:45:10;11.20;66.60
20911;DHT22;10615;42.702;23.314;2023-04-03T02:46:11;11.20;66.80
20911;DHT22;10615;42.702;23.314;2023-04-03T02:47:11;11.20;66.80
20911;DHT22;10615;42.702;23.314;2023-04-03T02:48:12;11.30;66.80
20911;DHT22;10615;42.702;23.314;2023-04-03T02:49:13;11.20;66.80
20911;DHT22;10615;42.702;23.314;2023-04-03T02:50:13;11.30;66.80
20911;DHT22;10615;42.702;23.314;2023-04-03T02:51:14;11.30;66.60
20911;DHT22;10615;42.702;23.314;2023-04-03T02:52:15;11.30;66.60
20911;DHT22;10615;42.702;23.314;2023-04-03T02:53:16;11.30;66.60
20911;DHT22;10615;42.702;23.314;2023-04-03T02:54:17;11.30;66.60
20911;DHT22;10615;42.702;23.314;2023-04-03T02:55:18;11.30;66.60
20911;DHT22;10615;42.702;23.314;2023-04-03T02:56:18;11.30;66.60
20911;DHT22;10615;42.702;23.314;2023-04-03T02:57:20;11.30;66.60
20911;DHT22;10615;42.702;23.314;2023-04-03T02:58:21;11.30;66.60
20911;DHT22;10615;42.702;23.314;2023-04-03T02:59:22;11.30;66.60
20911;DHT22;10615;42.702;23.314;2023-04-03T03:00:23;11.30;66.60
20911;DHT22;10615;42.702;23.314;2023-04-03T03:01:23;11.20;66.60
20911;DHT22;10615;42.702;23.314;2023-04-03T03:02:24;11.20;66.60
20911;DHT22;10615;42.702;23.314;2023-04-03T03:03:25;11.20;66.90
20911;DHT22;10615;42.702;23.314;2023-04-03T03:04:25;11.20;67.00
20911;DHT22;10615;42.702;23.314;2023-04-03T03:05:27;11.20;66.90
20911;DHT22;10615;42.702;23.314;2023-04-03T03:06:28;11.20;66.90
20911;DHT22;10615;42.702;23.314;2023-04-03T03:07:28;11.20;66.80
20911;DHT22;10615;42.702;23.314;2023-04-03T03:08:29;11.10;66.80
20911;DHT22;10615;42.702;23.314;2023-04-03T03:09:30;11.10;67.10
20911;DHT22;10615;42.702;23.314;2023-04-03T03:10:30;11.00;67.10
20911;DHT22;10615;42.702;23.314;2023-04-03T03:11:31;11.00;67.30
20911;DHT22;10615;42.702;23.314;2023-04-03T03:12:32;11.00;67.30
20911;DHT22;10615;42.702;23.314;2023-04-03T03:13:33;11.00;67.40
20911;DHT22;10615;42.702;23.314;2023-04-03T03:14:33;11.00;67.60
20911;DHT22;10615;42.702;23.314;2023-04-03T03:15:35;11.00;67.60
20911;DHT22;10615;42.702;23.314;2023-04-03T03:16:35;11.00;67.60
20911;DHT22;10615;42.702;23.314;2023-04-03T03:17:37;11.00;67.80
20911;DHT22;10615;42.702;23.314;2023-04-03T03:18:37;11.00;67.80
20911;DHT22;10615;42.702;23.314;2023-04-03T03:19:38;11.00;67.90
20911;DHT22;10615;42.702;23.314;2023-04-03T03:20:39;11.00;67.80
20911;DHT22;10615;42.702;23.314;2023-04-03T03:21:39;11.00;67.70
20911;DHT22;10615;42.702;23.314;2023-04-03T03:22:40;11.00;67.70
20911;DHT22;10615;42.702;23.314;2023-04-03T03:23:41;11.10;68.50
20911;DHT22;10615;42.702;23.314;2023-04-03T03:24:41;11.10;67.60
20911;DHT22;10615;42.702;23.314;2023-04-03T03:25:42;11.10;67.60
20911;DHT22;10615;42.702;23.314;2023-04-03T03:26:43;11.10;67.60
20911;DHT22;10615;42.702;23.314;2023-04-03T03:27:43;11.10;67.60
20911;DHT22;10615;42.702;23.314;2023-04-03T03:28:44;11.10;67.60
20911;DHT22;10615;42.702;23.314;2023-04-03T03:29:45;11.10;67.60
20911;DHT22;10615;42.702;23.314;2023-04-03T03:30:45;11.10;67.60
20911;DHT22;10615;42.702;23.314;2023-04-03T03:31:46;11.10;67.60
20911;DHT22;10615;42.702;23.314;2023-04-03T03:32:47;11.10;67.50
20911;DHT22;10615;42.702;23.314;2023-04-03T03:33:47;11.20;67.50
20911;DHT22;10615;42.702;23.314;2023-04-03T03:34:48;11.20;67.60
20911;DHT22;10615;42.702;23.314;2023-04-03T03:35:49;11.20;67.50
20911;DHT22;10615;42.702;23.314;2023-04-03T03:36:50;11.20;67.50
20911;DHT22;10615;42.702;23.314;2023-04-03T03:48:25;11.20;67.50
20911;DHT22;10615;42.702;23.314;2023-04-03T03:49:26;10.70;68.30
20911;DHT22;10615;42.702;23.314;2023-04-03T03:50:26;10.60;68.50
20911;DHT22;10615;42.702;23.314;2023-04-03T03:51:27;10.60;69.50
20911;DHT22;10615;42.702;23.314;2023-04-03T03:52:28;10.60;68.80
20911;DHT22;10615;42.702;23.314;2023-04-03T03:53:30;10.50;68.90
20911;DHT22;10615;42.702;23.314;2023-04-03T03:54:30;10.60;69.20
20911;DHT22;10615;42.702;23.314;2023-04-03T03:55:31;10.60;69.20
20911;DHT22;10615;42.702;23.314;2023-04-03T03:56:32;10.60;69.10
20911;DHT22;10615;42.702;23.314;2023-04-03T03:57:33;10.60;69.00
20911;DHT22;10615;42.702;23.314;2023-04-03T03:58:34;10.60;69.00
20911;DHT22;10615;42.702;23.314;2023-04-03T03:59:34;10.70;69.10
20911;DHT22;10615;42.702;23.314;2023-04-03T04:00:35;10.60;68.90
20911;DHT22;10615;42.702;23.314;2023-04-03T04:01:36;10.70;68.90
20911;DHT22;10615;42.702;23.314;2023-04-03T04:02:36;10.70;68.90
20911;DHT22;10615;42.702;23.314;2023-04-03T04:03:37;10.70;68.90
20911;DHT22;10615;42.702;23.314;2023-04-03T04:04:38;10.70;68.90
20911;DHT22;10615;42.702;23.314;2023-04-03T04:05:38;10.70;68.80
20911;DHT22;10615;42.702;23.314;2023-04-03T04:06:39;10.70;68.70
20911;DHT22;10615;42.702;23.314;2023-04-03T04:07:40;10.70;68.60
20911;DHT22;10615;42.702;23.314;2023-04-03T04:08:40;10.70;68.60
20911;DHT22;10615;42.702;23.314;2023-04-03T04:09:41;10.80;68.60
20911;DHT22;10615;42.702;23.314;2023-04-03T04:10:42;10.70;68.60
20911;DHT22;10615;42.702;23.314;2023-04-03T04:11:42;10.70;68.60
20911;DHT22;10615;42.702;23.314;2023-04-03T04:12:43;10.80;68.70
20911;DHT22;10615;42.702;23.314;2023-04-03T04:13:44;10.80;68.60
20911;DHT22;10615;42.702;23.314;2023-04-03T04:14:45;10.80;68.60
20911;DHT22;10615;42.702;23.314;2023-04-03T04:15:47;10.80;68.50
20911;DHT22;10615;42.702;23.314;2023-04-03T04:16:48;10.80;68.40
20911;DHT22;10615;42.702;23.314;2023-04-03T04:17:48;10.80;68.30
20911;DHT22;10615;42.702;23.314;2023-04-03T04:18:49;10.80;68.30
20911;DHT22;10615;42.702;23.314;2023-04-03T04:19:50;10.80;68.30
20911;DHT22;10615;42.702;23.314;2023-04-03T04:20:50;10.80;68.40
20911;DHT22;10615;42.702;23.314;2023-04-03T04:21:51;10.80;68.40
20911;DHT22;10615;42.702;23.314;2023-04-03T04:22:52;10.80;68.40
20911;DHT22;10615;42.702;23.314;2023-04-03T04:23:52;10.80;68.60
20911;DHT22;10615;42.702;23.314;2023-04-03T04:24:53;10.80;68.80
20911;DHT22;10615;42.702;23.314;2023-04-03T04:25:54;10.80;69.00
20911;DHT22;10615;42.702;23.314;2023-04-03T04:26:54;10.80;69.20
20911;DHT22;10615;42.702;23.314;2023-04-03T04:27:55;10.90;69.40
20911;DHT22;10615;42.702;23.314;2023-04-03T04:28:56;10.90;69.30
20911;DHT22;10615;42.702;23.314;2023-04-03T04:29:56;10.90;69.20
20911;DHT22;10615;42.702;23.314;2023-04-03T04:30:57;10.90;69.10
20911;DHT22;10615;42.702;23.314;2023-04-03T04:31:57;10.80;69.80
20911;DHT22;10615;42.702;23.314;2023-04-03T04:32:58;10.80;68.60
20911;DHT22;10615;42.702;23.314;2023-04-03T04:33:59;10.80;68.60
20911;DHT22;10615;42.702;23.314;2023-04-03T04:34:59;10.80;68.60
20911;DHT22;10615;42.702;23.314;2023-04-03T04:36:00;10.80;68.70
20911;DHT22;10615;42.702;23.314;2023-04-03T04:37:01;10.80;68.80
20911;DHT22;10615;42.702;23.314;2023-04-03T04:38:02;10.80;68.90
20911;DHT22;10615;42.702;23.314;2023-04-03T04:39:03;10.80;68.90
20911;DHT22;10615;42.702;23.314;2023-04-03T04:40:04;10.80;69.10
20911;DHT22;10615;42.702;23.314;2023-04-03T04:41:05;10.80;69.20
20911;DHT22;10615;42.702;23.314;2023-04-03T04:42:05;10.90;69.30
20911;DHT22;10615;42.702;23.314;2023-04-03T04:43:07;10.90;69.30
20911;DHT22;10615;42.702;23.314;2023-04-03T04:44:08;10.90;69.20
20911;DHT22;10615;42.702;23.314;2023-04-03T04:45:09;10.90;69.20
20911;DHT22;10615;42.702;23.314;2023-04-03T04:46:10;11.00;69.10
20911;DHT22;10615;42.702;23.314;2023-04-03T04:47:14;11.00;69.00
20911;DHT22;10615;42.702;23.314;2023-04-03T04:48:15;11.00;68.90
20911;DHT22;10615;42.702;23.314;2023-04-03T04:49:16;10.90;68.80
20911;DHT22;10615;42.702;23.314;2023-04-03T04:50:17;10.90;68.90
20911;DHT22;10615;42.702;23.314;2023-04-03T04:51:18;10.90;68.90
20911;DHT22;10615;42.702;23.314;2023-04-03T04:52:18;10.90;68.90
20911;DHT22;10615;42.702;23.314;2023-04-03T04:53:19;10.90;68.80
20911;DHT22;10615;42.702;23.314;2023-04-03T04:54:20;11.00;68.80
20911;DHT22;10615;42.702;23.314;2023-04-03T04:55:20;11.00;68.70
20911;DHT22;10615;42.702;23.314;2023-04-03T04:56:21;11.00;68.60
20911;DHT22;10615;42.702;23.314;2023-04-03T04:57:22;11.10;68.60
20911;DHT22;10615;42.702;23.314;2023-04-03T04:58:23;11.10;68.70
20911;DHT22;10615;42.702;23.314;2023-04-03T04:59:23;11.10;68.50
20911;DHT22;10615;42.702;23.314;2023-04-03T05:00:24;11.10;68.50
20911;DHT22;10615;42.702;23.314;2023-04-03T05:01:25;11.10;68.50
20911;DHT22;10615;42.702;23.314;2023-04-03T05:02:26;11.10;68.50
20911;DHT22;10615;42.702;23.314;2023-04-03T05:03:26;11.10;68.50
20911;DHT22;10615;42.702;23.314;2023-04-03T05:04:27;11.20;68.50
20911;DHT22;10615;42.702;23.314;2023-04-03T05:05:28;11.20;68.20
20911;DHT22;10615;42.702;23.314;2023-04-03T05:06:29;11.20;69.10
20911;DHT22;10615;42.702;23.314;2023-04-03T05:07:32;11.30;68.10
20911;DHT22;10615;42.702;23.314;2023-04-03T05:08:32;11.30;68.10
20911;DHT22;10615;42.702;23.314;2023-04-03T05:09:33;11.30;68.10
20911;DHT22;10615;42.702;23.314;2023-04-03T05:10:34;11.30;68.30
20911;DHT22;10615;42.702;23.314;2023-04-03T05:11:35;11.30;68.40
20911;DHT22;10615;42.702;23.314;2023-04-03T05:12:35;11.30;68.30
20911;DHT22;10615;42.702;23.314;2023-04-03T05:13:36;11.30;68.40
20911;DHT22;10615;42.702;23.314;2023-04-03T05:14:37;11.30;68.40
20911;DHT22;10615;42.702;23.314;2023-04-03T05:15:37;11.30;68.60
20911;DHT22;10615;42.702;23.314;2023-04-03T05:16:38;11.30;68.60
20911;DHT22;10615;42.702;23.314;2023-04-03T05:17:39;11.30;68.70
20911;DHT22;10615;42.702;23.314;2023-04-03T05:18:40;11.30;68.70
20911;DHT22;10615;42.702;23.314;2023-04-03T05:19:40;11.40;68.70
20911;DHT22;10615;42.702;23.314;2023-04-03T05:20:41;11.30;68.60
20911;DHT22;10615;42.702;23.314;2023-04-03T05:21:43;11.30;68.50
20911;DHT22;10615;42.702;23.314;2023-04-03T05:22:44;11.40;68.50
20911;DHT22;10615;42.702;23.314;2023-04-03T05:23:45;11.40;68.40
20911;DHT22;10615;42.702;23.314;2023-04-03T05:24:45;11.30;68.30
20911;DHT22;10615;42.702;23.314;2023-04-03T05:25:46;11.40;68.40
20911;DHT22;10615;42.702;23.314;2023-04-03T05:26:49;11.40;68.40
20911;DHT22;10615;42.702;23.314;2023-04-03T05:27:50;11.40;68.50
20911;DHT22;10615;42.702;23.314;2023-04-03T05:28:50;11.40;68.50
20911;DHT22;10615;42.702;23.314;2023-04-03T05:29:52;11.40;68.50
20911;DHT22;10615;42.702;23.314;2023-04-03T05:30:57;11.40;68.50
20911;DHT22;10615;42.702;23.314;2023-04-03T05:31:58;11.40;68.40
20911;DHT22;10615;42.702;23.314;2023-04-03T05:32:59;11.40;68.30
20911;DHT22;10615;42.702;23.314;2023-04-03T05:34:00;11.50;68.10
20911;DHT22;10615;42.702;23.314;2023-04-03T05:35:01;11.50;68.10
20911;DHT22;10615;42.702;23.314;2023-04-03T05:36:03;11.50;68.00
20911;DHT22;10615;42.702;23.314;2023-04-03T05:37:04;11.40;67.80
20911;DHT22;10615;42.702;23.314;2023-04-03T05:38:05;11.50;67.90
20911;DHT22;10615;42.702;23.314;2023-04-03T05:39:06;11.60;68.00
20911;DHT22;10615;42.702;23.314;2023-04-03T05:40:07;11.60;67.90
20911;DHT22;10615;42.702;23.314;2023-04-03T05:41:08;11.70;67.90
20911;DHT22;10615;42.702;23.314;2023-04-03T05:42:09;11.70;67.70
20911;DHT22;10615;42.702;23.314;2023-04-03T05:43:11;11.70;67.60
20911;DHT22;10615;42.702;23.314;2023-04-03T05:44:12;11.70;67.40
20911;DHT22;10615;42.702;23.314;2023-04-03T05:45:13;11.80;67.40
20911;DHT22;10615;42.702;23.314;2023-04-03T05:46:16;11.80;67.40
20911;DHT22;10615;42.702;23.314;2023-04-03T05:47:17;11.80;67.40
20911;DHT22;10615;42.702;23.314;2023-04-03T05:48:18;11.80;67.40
20911;DHT22;10615;42.702;23.314;2023-04-03T05:49:19;11.80;67.30
20911;DHT22;10615;42.702;23.314;2023-04-03T05:50:20;11.90;67.40
20911;DHT22;10615;42.702;23.314;2023-04-03T05:51:28;11.90;67.40
20911;DHT22;10615;42.702;23.314;2023-04-03T05:52:34;11.90;67.20
20911;DHT22;10615;42.702;23.314;2023-04-03T05:53:36;11.90;67.00
20911;DHT22;10615;42.702;23.314;2023-04-03T05:54:37;11.90;66.90
20911;DHT22;10615;42.702;23.314;2023-04-03T05:55:38;11.90;66.80
20911;DHT22;10615;42.702;23.314;2023-04-03T05:56:38;12.00;66.80
20911;DHT22;10615;42.702;23.314;2023-04-03T05:57:39;11.90;66.60
20911;DHT22;10615;42.702;23.314;2023-04-03T05:58:40;11.90;66.50
20911;DHT22;10615;42.702;23.314;2023-04-03T05:59:40;11.90;66.60
20911;DHT22;10615;42.702;23.314;2023-04-03T06:00:41;11.90;66.90
20911;DHT22;10615;42.702;23.314;2023-04-03T06:01:42;11.90;67.00
20911;DHT22;10615;42.702;23.314;2023-04-03T06:02:43;11.90;67.00
20911;DHT22;10615;42.702;23.314;2023-04-03T06:03:43;11.90;67.10
20911;DHT22;10615;42.702;23.314;2023-04-03T06:04:44;11.90;66.90
20911;DHT22;10615;42.702;23.314;2023-04-03T06:05:45;12.00;66.80
20911;DHT22;10615;42.702;23.314;2023-04-03T06:06:54;12.00;66.60
20911;DHT22;10615;42.702;23.314;2023-04-03T06:07:56;12.00;66.40
20911;DHT22;10615;42.702;23.314;2023-04-03T06:08:57;12.00;66.30
20911;DHT22;10615;42.702;23.314;2023-04-03T06:09:58;12.00;66.30
20911;DHT22;10615;42.702;23.314;2023-04-03T06:10:59;12.00;66.20
20911;DHT22;10615;42.702;23.314;2023-04-03T06:11:59;12.00;66.00
20911;DHT22;10615;42.702;23.314;2023-04-03T06:13:01;12.00;65.70
20911;DHT22;10615;42.702;23.314;2023-04-03T06:14:02;12.10;65.70
20911;DHT22;10615;42.702;23.314;2023-04-03T06:15:03;12.10;65.70
20911;DHT22;10615;42.702;23.314;2023-04-03T06:16:05;12.00;65.50
20911;DHT22;10615;42.702;23.314;2023-04-03T06:17:06;11.90;65.40
20911;DHT22;10615;42.702;23.314;2023-04-03T06:18:07;11.90;65.50
20911;DHT22;10615;42.702;23.314;2023-04-03T06:19:09;11.90;65.80
20911;DHT22;10615;42.702;23.314;2023-04-03T06:20:10;11.90;66.10
20911;DHT22;10615;42.702;23.314;2023-04-03T06:21:11;11.90;66.10
20911;DHT22;10615;42.702;23.314;2023-04-03T06:22:12;11.90;66.20
20911;DHT22;10615;42.702;23.314;2023-04-03T06:23:13;11.90;66.10
20911;DHT22;10615;42.702;23.314;2023-04-03T06:24:16;11.90;66.10
20911;DHT22;10615;42.702;23.314;2023-04-03T06:25:17;11.90;66.00
20911;DHT22;10615;42.702;23.314;2023-04-03T06:26:19;12.00;66.00
20911;DHT22;10615;42.702;23.314;2023-04-03T06:27:19;12.00;66.00
20911;DHT22;10615;42.702;23.314;2023-04-03T06:28:20;12.00;65.90
20911;DHT22;10615;42.702;23.314;2023-04-03T06:29:21;12.00;65.90
20911;DHT22;10615;42.702;23.314;2023-04-03T06:30:22;12.00;65.80
20911;DHT22;10615;42.702;23.314;2023-04-03T06:31:23;12.00;65.80
20911;DHT22;10615;42.702;23.314;2023-04-03T06:32:23;12.00;65.90
20911;DHT22;10615;42.702;23.314;2023-04-03T06:33:24;12.10;66.00
20911;DHT22;10615;42.702;23.314;2023-04-03T06:34:25;12.10;65.90
20911;DHT22;10615;42.702;23.314;2023-04-03T06:35:26;12.10;65.70
20911;DHT22;10615;42.702;23.314;2023-04-03T06:36:28;12.20;65.60